sensor_id;sensor_type;location;lat;lon;timestamp;temperature;humidity
81935;DHT22;71405;47.674;-2.050;2024-02-14T00:02:21;18.90;59.30
81935;DHT22;71405;47.674;-2.050;2024-02-14T00:04:46;18.90;59.20
81935;DHT22;71405;47.674;-2.050;2024-02-14T00:07:12;18.90;59.00
81935;DHT22;71405;47.674;-2.050;2024-02-14T00:09:38;18.90;59.10
81935;DHT22;71405;47.674;-2.050;2024-02-14T00:12:04;18.90;58.90
81935;DHT22;71405;47.674;-2.050;2024-02-14T00:14:29;18.90;58.90
81935;DHT22;71405;47.674;-2.050;2024-02-14T00:16:55;18.90;59.10
81935;DHT22;71405;47.674;-2.050;2024-02-14T00:19:21;18.90;59.30
81935;DHT22;71405;47.674;-2.050;2024-02-14T00:21:47;18.90;59.30
81935;DHT22;71405;47.674;-2.050;2024-02-14T00:24:12;18.90;59.50
81935;DHT22;71405;47.674;-2.050;2024-02-14T00:26:38;18.90;59.50
81935;DHT22;71405;47.674;-2.050;2024-02-14T00:29:05;18.90;59.40
81935;DHT22;71405;47.674;-2.050;2024-02-14T00:31:30;18.90;59.80
81935;DHT22;71405;47.674;-2.050;2024-02-14T00:33:56;18.90;59.60
81935;DHT22;71405;47.674;-2.050;2024-02-14T00:36:21;18.90;59.60
81935;DHT22;71405;47.674;-2.050;2024-02-14T00:38:47;18.90;59.40
81935;DHT22;71405;47.674;-2.050;2024-02-14T00:41:13;18.90;59.30
81935;DHT22;71405;47.674;-2.050;2024-02-14T00:43:38;18.90;59.50
81935;DHT22;71405;47.674;-2.050;2024-02-14T00:46:04;18.90;59.20
81935;DHT22;71405;47.674;-2.050;2024-02-14T00:48:32;18.90;59.40
81935;DHT22;71405;47.674;-2.050;2024-02-14T00:50:57;18.90;59.20
81935;DHT22;71405;47.674;-2.050;2024-02-14T00:53:24;18.90;59.40
81935;DHT22;71405;47.674;-2.050;2024-02-14T00:55:50;18.90;59.10
81935;DHT22;71405;47.674;-2.050;2024-02-14T00:58:17;18.90;59.20
81935;DHT22;71405;47.674;-2.050;2024-02-14T01:00:42;18.90;59.20
81935;DHT22;71405;47.674;-2.050;2024-02-14T01:03:08;18.90;59.00
81935;DHT22;71405;47.674;-2.050;2024-02-14T01:05:38;18.90;59.10
81935;DHT22;71405;47.674;-2.050;2024-02-14T01:08:04;18.90;59.10
81935;DHT22;71405;47.674;-2.050;2024-02-14T01:10:30;18.90;59.00
81935;DHT22;71405;47.674;-2.050;2024-02-14T01:12:55;18.90;59.40
81935;DHT22;71405;47.674;-2.050;2024-02-14T01:15:22;18.90;59.60
81935;DHT22;71405;47.674;-2.050;2024-02-14T01:17:47;18.90;59.30
81935;DHT22;71405;47.674;-2.050;2024-02-14T01:20:13;18.90;59.70
81935;DHT22;71405;47.674;-2.050;2024-02-14T01:22:39;18.90;60.30
81935;DHT22;71405;47.674;-2.050;2024-02-14T01:25:06;18.90;61.10
81935;DHT22;71405;47.674;-2.050;2024-02-14T01:27:31;18.90;61.40
81935;DHT22;71405;47.674;-2.050;2024-02-14T01:29:57;18.90;61.50
81935;DHT22;71405;47.674;-2.050;2024-02-14T01:32:23;18.90;61.20
81935;DHT22;71405;47.674;-2.050;2024-02-14T01:34:49;18.90;61.10
81935;DHT22;71405;47.674;-2.050;2024-02-14T01:37:15;18.90;61.10
81935;DHT22;71405;47.674;-2.050;2024-02-14T01:39:41;18.90;61.00
81935;DHT22;71405;47.674;-2.050;2024-02-14T01:42:06;18.90;61.20
81935;DHT22;71405;47.674;-2.050;2024-02-14T01:44:33;18.90;61.20
81935;DHT22;71405;47.674;-2.050;2024-02-14T01:47:00;18.90;61.00
81935;DHT22;71405;47.674;-2.050;2024-02-14T01:49:26;18.90;60.80
81935;DHT22;71405;47.674;-2.050;2024-02-14T01:51:59;18.90;60.70
81935;DHT22;71405;47.674;-2.050;2024-02-14T01:54:26;18.90;60.40
81935;DHT22;71405;47.674;-2.050;2024-02-14T01:56:53;18.90;60.60
81935;DHT22;71405;47.674;-2.050;2024-02-14T01:59:20;18.90;60.20
81935;DHT22;71405;47.674;-2.050;2024-02-14T02:01:46;18.90;60.10
81935;DHT22;71405;47.674;-2.050;2024-02-14T02:04:12;18.90;60.20
81935;DHT22;71405;47.674;-2.050;2024-02-14T02:06:38;18.90;60.20
81935;DHT22;71405;47.674;-2.050;2024-02-14T02:09:06;18.90;60.30
81935;DHT22;71405;47.674;-2.050;2024-02-14T02:11:46;18.90;60.30
81935;DHT22;71405;47.674;-2.050;2024-02-14T02:14:14;18.90;60.10
81935;DHT22;71405;47.674;-2.050;2024-02-14T02:16:39;18.90;60.10
81935;DHT22;71405;47.674;-2.050;2024-02-14T02:19:05;18.90;60.10
81935;DHT22;71405;47.674;-2.050;2024-02-14T02:21:34;18.90;59.90
81935;DHT22;71405;47.674;-2.050;2024-02-14T02:24:01;18.90;60.20
81935;DHT22;71405;47.674;-2.050;2024-02-14T02:26:27;18.90;60.20
81935;DHT22;71405;47.674;-2.050;2024-02-14T02:28:52;18.90;60.50
81935;DHT22;71405;47.674;-2.050;2024-02-14T02:31:19;18.90;60.40
81935;DHT22;71405;47.674;-2.050;2024-02-14T02:33:44;18.80;60.60
81935;DHT22;71405;47.674;-2.050;2024-02-14T02:36:10;18.80;60.50
81935;DHT22;71405;47.674;-2.050;2024-02-14T02:38:36;18.90;60.20
81935;DHT22;71405;47.674;-2.050;2024-02-14T02:41:05;18.80;60.20
81935;DHT22;71405;47.674;-2.050;2024-02-14T02:43:35;18.90;60.20
81935;DHT22;71405;47.674;-2.050;2024-02-14T02:46:01;18.80;60.00
81935;DHT22;71405;47.674;-2.050;2024-02-14T02:48:26;18.80;60.40
81935;DHT22;71405;47.674;-2.050;2024-02-14T02:50:53;18.80;60.40
81935;DHT22;71405;47.674;-2.050;2024-02-14T02:53:19;18.80;60.30
81935;DHT22;71405;47.674;-2.050;2024-02-14T02:55:45;18.80;60.50
81935;DHT22;71405;47.674;-2.050;2024-02-14T02:58:11;18.80;60.60
81935;DHT22;71405;47.674;-2.050;2024-02-14T03:00:37;18.80;60.40
81935;DHT22;71405;47.674;-2.050;2024-02-14T03:03:03;18.80;60.30
81935;DHT22;71405;47.674;-2.050;2024-02-14T03:05:33;18.80;60.40
81935;DHT22;71405;47.674;-2.050;2024-02-14T03:07:59;18.80;60.30
81935;DHT22;71405;47.674;-2.050;2024-02-14T03:10:25;18.80;60.30
81935;DHT22;71405;47.674;-2.050;2024-02-14T03:12:51;18.80;60.10
81935;DHT22;71405;47.674;-2.050;2024-02-14T03:15:17;18.80;60.10
81935;DHT22;71405;47.674;-2.050;2024-02-14T03:17:44;18.80;60.00
81935;DHT22;71405;47.674;-2.050;2024-02-14T03:20:11;18.80;60.20
81935;DHT22;71405;47.674;-2.050;2024-02-14T03:22:41;18.80;59.90
81935;DHT22;71405;47.674;-2.050;2024-02-14T03:25:21;18.80;60.20
81935;DHT22;71405;47.674;-2.050;2024-02-14T03:27:49;18.80;60.00
81935;DHT22;71405;47.674;-2.050;2024-02-14T03:30:21;18.80;60.00
81935;DHT22;71405;47.674;-2.050;2024-02-14T03:32:47;18.80;59.80
81935;DHT22;71405;47.674;-2.050;2024-02-14T03:35:13;18.80;60.00
81935;DHT22;71405;47.674;-2.050;2024-02-14T03:37:41;18.80;60.20
81935;DHT22;71405;47.674;-2.050;2024-02-14T03:40:08;18.80;60.20
81935;DHT22;71405;47.674;-2.050;2024-02-14T03:42:35;18.80;60.00
81935;DHT22;71405;47.674;-2.050;2024-02-14T03:45:01;18.80;60.10
81935;DHT22;71405;47.674;-2.050;2024-02-14T03:47:31;18.80;60.50
81935;DHT22;71405;47.674;-2.050;2024-02-14T03:50:01;18.80;60.30
81935;DHT22;71405;47.674;-2.050;2024-02-14T03:52:28;18.80;60.20
81935;DHT22;71405;47.674;-2.050;2024-02-14T03:54:53;18.80;60.30
81935;DHT22;71405;47.674;-2.050;2024-02-14T03:57:19;18.80;60.20
81935;DHT22;71405;47.674;-2.050;2024-02-14T03:59:46;18.80;60.30
81935;DHT22;71405;47.674;-2.050;2024-02-14T04:02:11;18.80;60.00
81935;DHT22;71405;47.674;-2.050;2024-02-14T04:04:41;18.80;60.50
81935;DHT22;71405;47.674;-2.050;2024-02-14T04:07:08;18.80;59.60
81935;DHT22;71405;47.674;-2.050;2024-02-14T04:09:34;18.80;59.60
81935;DHT22;71405;47.674;-2.050;2024-02-14T04:12:00;18.80;59.50
81935;DHT22;71405;47.674;-2.050;2024-02-14T04:14:26;18.90;59.40
81935;DHT22;71405;47.674;-2.050;2024-02-14T04:16:52;18.90;59.20
81935;DHT22;71405;47.674;-2.050;2024-02-14T04:19:17;18.90;59.40
81935;DHT22;71405;47.674;-2.050;2024-02-14T04:21:43;18.90;59.50
81935;DHT22;71405;47.674;-2.050;2024-02-14T04:24:09;18.90;59.50
81935;DHT22;71405;47.674;-2.050;2024-02-14T04:26:35;18.90;59.30
81935;DHT22;71405;47.674;-2.050;2024-02-14T04:29:01;18.90;59.30
81935;DHT22;71405;47.674;-2.050;2024-02-14T04:31:27;19.00;59.20
81935;DHT22;71405;47.674;-2.050;2024-02-14T04:33:55;19.00;59.10
81935;DHT22;71405;47.674;-2.050;2024-02-14T04:36:21;19.00;59.20
81935;DHT22;71405;47.674;-2.050;2024-02-14T04:38:49;19.00;59.20
81935;DHT22;71405;47.674;-2.050;2024-02-14T04:41:15;19.00;59.20
81935;DHT22;71405;47.674;-2.050;2024-02-14T04:43:41;19.00;59.30
81935;DHT22;71405;47.674;-2.050;2024-02-14T04:46:07;19.00;59.30
81935;DHT22;71405;47.674;-2.050;2024-02-14T04:48:35;19.00;59.20
81935;DHT22;71405;47.674;-2.050;2024-02-14T04:51:01;19.00;59.20
81935;DHT22;71405;47.674;-2.050;2024-02-14T04:53:27;19.00;59.30
81935;DHT22;71405;47.674;-2.050;2024-02-14T04:55:53;19.10;59.20
81935;DHT22;71405;47.674;-2.050;2024-02-14T04:58:19;19.10;59.30
81935;DHT22;71405;47.674;-2.050;2024-02-14T05:00:45;19.10;59.20
81935;DHT22;71405;47.674;-2.050;2024-02-14T05:03:11;19.10;59.10
81935;DHT22;71405;47.674;-2.050;2024-02-14T05:05:38;19.10;59.00
81935;DHT22;71405;47.674;-2.050;2024-02-14T05:08:04;19.10;59.00
81935;DHT22;71405;47.674;-2.050;2024-02-14T05:10:30;19.10;59.20
81935;DHT22;71405;47.674;-2.050;2024-02-14T05:12:57;19.10;59.10
81935;DHT22;71405;47.674;-2.050;2024-02-14T05:15:22;19.10;59.20
81935;DHT22;71405;47.674;-2.050;2024-02-14T05:17:49;19.10;59.20
81935;DHT22;71405;47.674;-2.050;2024-02-14T05:20:16;19.10;59.30
81935;DHT22;71405;47.674;-2.050;2024-02-14T05:22:41;19.10;59.20
81935;DHT22;71405;47.674;-2.050;2024-02-14T05:25:08;19.10;59.10
81935;DHT22;71405;47.674;-2.050;2024-02-14T05:27:34;19.10;59.10
81935;DHT22;71405;47.674;-2.050;2024-02-14T05:30:01;19.20;59.20
81935;DHT22;71405;47.674;-2.050;2024-02-14T05:32:26;19.10;59.20
81935;DHT22;71405;47.674;-2.050;2024-02-14T05:34:52;19.20;59.20
81935;DHT22;71405;47.674;-2.050;2024-02-14T05:37:18;19.10;59.30
81935;DHT22;71405;47.674;-2.050;2024-02-14T05:39:44;19.20;59.10
81935;DHT22;71405;47.674;-2.050;2024-02-14T05:42:09;19.20;59.30
81935;DHT22;71405;47.674;-2.050;2024-02-14T05:44:35;19.20;59.20
81935;DHT22;71405;47.674;-2.050;2024-02-14T05:47:00;19.20;59.00
81935;DHT22;71405;47.674;-2.050;2024-02-14T05:49:26;19.20;58.90
81935;DHT22;71405;47.674;-2.050;2024-02-14T05:51:52;19.20;58.90
81935;DHT22;71405;47.674;-2.050;2024-02-14T05:54:19;19.20;58.80
81935;DHT22;71405;47.674;-2.050;2024-02-14T05:56:45;19.20;58.80
81935;DHT22;71405;47.674;-2.050;2024-02-14T05:59:11;19.20;58.70
81935;DHT22;71405;47.674;-2.050;2024-02-14T06:01:37;19.30;58.70
81935;DHT22;71405;47.674;-2.050;2024-02-14T06:04:03;19.30;58.80
81935;DHT22;71405;47.674;-2.050;2024-02-14T06:06:28;19.30;58.90
81935;DHT22;71405;47.674;-2.050;2024-02-14T06:08:54;19.30;58.80
81935;DHT22;71405;47.674;-2.050;2024-02-14T06:11:20;19.30;59.00
81935;DHT22;71405;47.674;-2.050;2024-02-14T06:13:49;19.30;59.10
81935;DHT22;71405;47.674;-2.050;2024-02-14T06:16:15;19.20;58.90
81935;DHT22;71405;47.674;-2.050;2024-02-14T06:18:41;19.20;59.00
81935;DHT22;71405;47.674;-2.050;2024-02-14T06:21:07;19.20;59.00
81935;DHT22;71405;47.674;-2.050;2024-02-14T06:23:33;19.20;59.20
81935;DHT22;71405;47.674;-2.050;2024-02-14T06:25:59;19.20;59.30
81935;DHT22;71405;47.674;-2.050;2024-02-14T06:28:24;19.20;58.90
81935;DHT22;71405;47.674;-2.050;2024-02-14T06:30:50;19.20;58.90
81935;DHT22;71405;47.674;-2.050;2024-02-14T06:33:16;19.20;58.80
81935;DHT22;71405;47.674;-2.050;2024-02-14T06:35:41;19.20;59.20
81935;DHT22;71405;47.674;-2.050;2024-02-14T06:38:07;19.20;59.20
81935;DHT22;71405;47.674;-2.050;2024-02-14T06:40:33;19.20;59.60
81935;DHT22;71405;47.674;-2.050;2024-02-14T06:42:59;19.20;59.50
81935;DHT22;71405;47.674;-2.050;2024-02-14T06:45:29;19.20;59.10
81935;DHT22;71405;47.674;-2.050;2024-02-14T06:47:55;19.20;59.00
81935;DHT22;71405;47.674;-2.050;2024-02-14T06:50:20;19.20;59.10
81935;DHT22;71405;47.674;-2.050;2024-02-14T06:52:46;19.20;59.30
81935;DHT22;71405;47.674;-2.050;2024-02-14T06:55:12;19.10;59.20
81935;DHT22;71405;47.674;-2.050;2024-02-14T06:57:39;19.10;58.90
81935;DHT22;71405;47.674;-2.050;2024-02-14T07:00:05;19.10;59.70
81935;DHT22;71405;47.674;-2.050;2024-02-14T07:02:32;19.10;59.60
81935;DHT22;71405;47.674;-2.050;2024-02-14T07:04:57;19.10;59.60
81935;DHT22;71405;47.674;-2.050;2024-02-14T07:07:23;19.10;59.40
81935;DHT22;71405;47.674;-2.050;2024-02-14T07:09:49;19.10;59.30
81935;DHT22;71405;47.674;-2.050;2024-02-14T07:12:14;19.10;59.10
81935;DHT22;71405;47.674;-2.050;2024-02-14T07:14:40;19.10;58.80
81935;DHT22;71405;47.674;-2.050;2024-02-14T07:17:06;19.10;58.80
81935;DHT22;71405;47.674;-2.050;2024-02-14T07:19:32;19.10;58.90
81935;DHT22;71405;47.674;-2.050;2024-02-14T07:21:58;19.10;59.50
81935;DHT22;71405;47.674;-2.050;2024-02-14T07:24:23;19.10;61.70
81935;DHT22;71405;47.674;-2.050;2024-02-14T07:26:49;19.10;61.40
81935;DHT22;71405;47.674;-2.050;2024-02-14T07:29:15;19.10;61.70
81935;DHT22;71405;47.674;-2.050;2024-02-14T07:31:40;19.10;62.50
81935;DHT22;71405;47.674;-2.050;2024-02-14T07:34:07;19.10;62.60
81935;DHT22;71405;47.674;-2.050;2024-02-14T07:36:32;19.10;62.60
81935;DHT22;71405;47.674;-2.050;2024-02-14T07:38:58;19.10;62.30
81935;DHT22;71405;47.674;-2.050;2024-02-14T07:41:24;19.10;62.30
81935;DHT22;71405;47.674;-2.050;2024-02-14T07:43:50;19.10;62.10
81935;DHT22;71405;47.674;-2.050;2024-02-14T07:46:19;19.00;62.00
81935;DHT22;71405;47.674;-2.050;2024-02-14T07:48:45;19.00;62.10
81935;DHT22;71405;47.674;-2.050;2024-02-14T07:51:12;19.10;61.80
81935;DHT22;71405;47.674;-2.050;2024-02-14T07:53:37;19.00;61.90
81935;DHT22;71405;47.674;-2.050;2024-02-14T07:56:03;19.00;61.80
81935;DHT22;71405;47.674;-2.050;2024-02-14T07:58:29;19.00;61.70
81935;DHT22;71405;47.674;-2.050;2024-02-14T08:00:55;19.00;61.80
81935;DHT22;71405;47.674;-2.050;2024-02-14T08:03:20;19.00;62.10
81935;DHT22;71405;47.674;-2.050;2024-02-14T08:05:46;19.00;61.90
81935;DHT22;71405;47.674;-2.050;2024-02-14T08:08:12;19.00;61.90
81935;DHT22;71405;47.674;-2.050;2024-02-14T08:10:37;19.00;61.90
81935;DHT22;71405;47.674;-2.050;2024-02-14T08:13:04;19.00;61.80
81935;DHT22;71405;47.674;-2.050;2024-02-14T08:15:30;19.00;61.60
81935;DHT22;71405;47.674;-2.050;2024-02-14T08:17:55;19.00;61.70
81935;DHT22;71405;47.674;-2.050;2024-02-14T08:20:22;19.00;61.80
81935;DHT22;71405;47.674;-2.050;2024-02-14T08:22:49;19.00;61.80
81935;DHT22;71405;47.674;-2.050;2024-02-14T08:25:15;19.00;61.50
81935;DHT22;71405;47.674;-2.050;2024-02-14T08:27:41;19.00;61.50
81935;DHT22;71405;47.674;-2.050;2024-02-14T08:30:07;19.00;61.50
81935;DHT22;71405;47.674;-2.050;2024-02-14T08:32:34;19.00;61.70
81935;DHT22;71405;47.674;-2.050;2024-02-14T08:35:00;19.00;61.40
81935;DHT22;71405;47.674;-2.050;2024-02-14T08:37:27;18.90;61.40
81935;DHT22;71405;47.674;-2.050;2024-02-14T08:39:53;19.00;61.10
81935;DHT22;71405;47.674;-2.050;2024-02-14T08:42:18;19.00;60.90
81935;DHT22;71405;47.674;-2.050;2024-02-14T08:44:44;19.00;60.90
81935;DHT22;71405;47.674;-2.050;2024-02-14T08:47:10;19.00;61.00
81935;DHT22;71405;47.674;-2.050;2024-02-14T08:49:36;19.00;60.80
81935;DHT22;71405;47.674;-2.050;2024-02-14T08:52:02;19.00;60.70
81935;DHT22;71405;47.674;-2.050;2024-02-14T08:54:28;19.00;60.70
81935;DHT22;71405;47.674;-2.050;2024-02-14T08:56:54;19.00;60.90
81935;DHT22;71405;47.674;-2.050;2024-02-14T08:59:21;18.90;60.90
81935;DHT22;71405;47.674;-2.050;2024-02-14T09:01:47;19.00;61.00
81935;DHT22;71405;47.674;-2.050;2024-02-14T09:04:13;19.00;60.90
81935;DHT22;71405;47.674;-2.050;2024-02-14T09:06:39;18.90;61.00
81935;DHT22;71405;47.674;-2.050;2024-02-14T09:09:09;19.00;60.90
81935;DHT22;71405;47.674;-2.050;2024-02-14T09:11:36;19.00;61.30
81935;DHT22;71405;47.674;-2.050;2024-02-14T09:14:02;18.90;61.50
81935;DHT22;71405;47.674;-2.050;2024-02-14T09:16:35;18.90;61.50
81935;DHT22;71405;47.674;-2.050;2024-02-14T09:19:00;18.90;61.30
81935;DHT22;71405;47.674;-2.050;2024-02-14T09:21:32;18.90;61.50
81935;DHT22;71405;47.674;-2.050;2024-02-14T09:23:59;18.90;61.20
81935;DHT22;71405;47.674;-2.050;2024-02-14T09:26:25;18.90;61.10
81935;DHT22;71405;47.674;-2.050;2024-02-14T09:28:52;18.90;61.10
81935;DHT22;71405;47.674;-2.050;2024-02-14T09:31:21;18.90;60.70
81935;DHT22;71405;47.674;-2.050;2024-02-14T09:33:49;18.90;61.00
81935;DHT22;71405;47.674;-2.050;2024-02-14T09:36:15;18.90;60.90
81935;DHT22;71405;47.674;-2.050;2024-02-14T09:38:42;18.90;60.80
81935;DHT22;71405;47.674;-2.050;2024-02-14T09:41:37;18.90;60.90
81935;DHT22;71405;47.674;-2.050;2024-02-14T09:44:05;18.90;60.80
81935;DHT22;71405;47.674;-2.050;2024-02-14T09:46:35;18.90;60.60
81935;DHT22;71405;47.674;-2.050;2024-02-14T09:49:03;18.90;60.50
81935;DHT22;71405;47.674;-2.050;2024-02-14T09:51:29;18.90;60.60
81935;DHT22;71405;47.674;-2.050;2024-02-14T09:53:56;18.90;60.80
81935;DHT22;71405;47.674;-2.050;2024-02-14T09:56:24;18.90;61.40
81935;DHT22;71405;47.674;-2.050;2024-02-14T09:58:51;18.90;61.60
81935;DHT22;71405;47.674;-2.050;2024-02-14T10:01:22;18.90;61.60
81935;DHT22;71405;47.674;-2.050;2024-02-14T10:03:50;18.90;61.50
81935;DHT22;71405;47.674;-2.050;2024-02-14T10:06:17;18.90;60.90
81935;DHT22;71405;47.674;-2.050;2024-02-14T10:08:43;18.90;61.10
81935;DHT22;71405;47.674;-2.050;2024-02-14T10:11:08;18.90;60.80
81935;DHT22;71405;47.674;-2.050;2024-02-14T10:13:36;18.90;60.70
81935;DHT22;71405;47.674;-2.050;2024-02-14T10:16:01;19.00;60.50
81935;DHT22;71405;47.674;-2.050;2024-02-14T10:18:28;19.00;60.40
81935;DHT22;71405;47.674;-2.050;2024-02-14T10:20:57;19.00;60.60
81935;DHT22;71405;47.674;-2.050;2024-02-14T10:23:23;19.00;60.80
81935;DHT22;71405;47.674;-2.050;2024-02-14T10:25:50;19.00;60.50
81935;DHT22;71405;47.674;-2.050;2024-02-14T10:28:18;19.00;60.50
81935;DHT22;71405;47.674;-2.050;2024-02-14T10:30:48;19.00;60.40
81935;DHT22;71405;47.674;-2.050;2024-02-14T10:33:15;19.00;60.40
81935;DHT22;71405;47.674;-2.050;2024-02-14T10:35:42;19.00;60.40
81935;DHT22;71405;47.674;-2.050;2024-02-14T10:38:08;19.10;60.40
81935;DHT22;71405;47.674;-2.050;2024-02-14T10:40:36;19.10;60.40
81935;DHT22;71405;47.674;-2.050;2024-02-14T10:43:05;19.10;60.20
81935;DHT22;71405;47.674;-2.050;2024-02-14T10:45:31;19.10;60.10
81935;DHT22;71405;47.674;-2.050;2024-02-14T10:47:57;19.10;60.10
81935;DHT22;71405;47.674;-2.050;2024-02-14T10:50:28;19.10;60.10
81935;DHT22;71405;47.674;-2.050;2024-02-14T10:52:57;19.10;60.10
81935;DHT22;71405;47.674;-2.050;2024-02-14T10:55:28;19.10;60.00
81935;DHT22;71405;47.674;-2.050;2024-02-14T10:57:55;19.10;60.00
81935;DHT22;71405;47.674;-2.050;2024-02-14T11:00:22;19.10;60.10
81935;DHT22;71405;47.674;-2.050;2024-02-14T11:02:49;19.20;60.00
81935;DHT22;71405;47.674;-2.050;2024-02-14T11:05:16;19.20;60.00
81935;DHT22;71405;47.674;-2.050;2024-02-14T11:07:45;19.20;60.00
81935;DHT22;71405;47.674;-2.050;2024-02-14T11:10:16;19.20;60.00
81935;DHT22;71405;47.674;-2.050;2024-02-14T11:12:42;19.20;60.10
81935;DHT22;71405;47.674;-2.050;2024-02-14T11:15:21;19.20;60.10
81935;DHT22;71405;47.674;-2.050;2024-02-14T11:17:47;19.20;60.00
81935;DHT22;71405;47.674;-2.050;2024-02-14T11:20:21;19.20;60.00
81935;DHT22;71405;47.674;-2.050;2024-02-14T11:23:06;19.20;60.10
81935;DHT22;71405;47.674;-2.050;2024-02-14T11:25:36;19.20;59.90
81935;DHT22;71405;47.674;-2.050;2024-02-14T11:28:18;19.20;60.10
81935;DHT22;71405;47.674;-2.050;2024-02-14T11:30:49;19.30;60.00
81935;DHT22;71405;47.674;-2.050;2024-02-14T11:33:16;19.30;60.00
81935;DHT22;71405;47.674;-2.050;2024-02-14T11:35:45;19.30;60.10
81935;DHT22;71405;47.674;-2.050;2024-02-14T11:38:11;19.30;60.00
81935;DHT22;71405;47.674;-2.050;2024-02-14T11:40:37;19.30;60.10
81935;DHT22;71405;47.674;-2.050;2024-02-14T11:43:05;19.30;60.20
81935;DHT22;71405;47.674;-2.050;2024-02-14T11:45:35;19.30;60.10
81935;DHT22;71405;47.674;-2.050;2024-02-14T11:48:04;19.30;60.20
81935;DHT22;71405;47.674;-2.050;2024-02-14T11:50:31;19.30;60.40
81935;DHT22;71405;47.674;-2.050;2024-02-14T11:52:58;19.30;60.20
81935;DHT22;71405;47.674;-2.050;2024-02-14T11:55:28;19.30;60.20
81935;DHT22;71405;47.674;-2.050;2024-02-14T11:57:54;19.40;60.30
81935;DHT22;71405;47.674;-2.050;2024-02-14T12:00:20;19.40;60.30
81935;DHT22;71405;47.674;-2.050;2024-02-14T12:02:46;19.40;60.40
81935;DHT22;71405;47.674;-2.050;2024-02-14T12:05:12;19.40;60.40
81935;DHT22;71405;47.674;-2.050;2024-02-14T12:07:39;19.40;60.20
81935;DHT22;71405;47.674;-2.050;2024-02-14T12:10:07;19.40;60.40
81935;DHT22;71405;47.674;-2.050;2024-02-14T12:12:34;19.40;60.40
81935;DHT22;71405;47.674;-2.050;2024-02-14T12:15:02;19.40;60.30
81935;DHT22;71405;47.674;-2.050;2024-02-14T12:17:28;19.40;60.50
81935;DHT22;71405;47.674;-2.050;2024-02-14T12:20:08;19.40;60.40
81935;DHT22;71405;47.674;-2.050;2024-02-14T12:22:39;19.40;60.30
81935;DHT22;71405;47.674;-2.050;2024-02-14T12:25:07;19.30;60.30
81935;DHT22;71405;47.674;-2.050;2024-02-14T12:27:34;19.40;60.20
81935;DHT22;71405;47.674;-2.050;2024-02-14T12:30:03;19.30;60.40
81935;DHT22;71405;47.674;-2.050;2024-02-14T12:32:29;19.30;60.40
81935;DHT22;71405;47.674;-2.050;2024-02-14T12:34:58;19.30;60.60
81935;DHT22;71405;47.674;-2.050;2024-02-14T12:37:24;19.30;60.50
81935;DHT22;71405;47.674;-2.050;2024-02-14T12:39:50;19.40;60.50
81935;DHT22;71405;47.674;-2.050;2024-02-14T12:42:16;19.30;60.20
81935;DHT22;71405;47.674;-2.050;2024-02-14T12:44:44;19.30;60.10
81935;DHT22;71405;47.674;-2.050;2024-02-14T12:47:09;19.30;60.10
81935;DHT22;71405;47.674;-2.050;2024-02-14T12:49:35;19.30;60.40
81935;DHT22;71405;47.674;-2.050;2024-02-14T12:52:01;19.30;60.20
81935;DHT22;71405;47.674;-2.050;2024-02-14T12:54:27;19.30;60.60
81935;DHT22;71405;47.674;-2.050;2024-02-14T12:56:53;19.30;60.50
81935;DHT22;71405;47.674;-2.050;2024-02-14T12:59:19;19.30;60.30
81935;DHT22;71405;47.674;-2.050;2024-02-14T13:01:45;19.30;60.20
81935;DHT22;71405;47.674;-2.050;2024-02-14T13:04:12;19.30;60.50
81935;DHT22;71405;47.674;-2.050;2024-02-14T13:06:37;19.30;60.60
81935;DHT22;71405;47.674;-2.050;2024-02-14T13:09:03;19.30;60.80
81935;DHT22;71405;47.674;-2.050;2024-02-14T13:11:31;19.30;60.80
81935;DHT22;71405;47.674;-2.050;2024-02-14T13:13:58;19.30;60.60
81935;DHT22;71405;47.674;-2.050;2024-02-14T13:16:24;19.30;60.60
81935;DHT22;71405;47.674;-2.050;2024-02-14T13:18:50;19.30;61.00
81935;DHT22;71405;47.674;-2.050;2024-02-14T13:21:15;19.30;60.80
81935;DHT22;71405;47.674;-2.050;2024-02-14T13:23:42;19.30;60.40
81935;DHT22;71405;47.674;-2.050;2024-02-14T13:26:08;19.30;60.20
81935;DHT22;71405;47.674;-2.050;2024-02-14T13:28:34;19.30;60.10
81935;DHT22;71405;47.674;-2.050;2024-02-14T13:31:00;19.30;60.20
81935;DHT22;71405;47.674;-2.050;2024-02-14T13:33:26;19.30;60.20
81935;DHT22;71405;47.674;-2.050;2024-02-14T13:35:52;19.30;60.20
81935;DHT22;71405;47.674;-2.050;2024-02-14T13:38:17;19.30;60.40
81935;DHT22;71405;47.674;-2.050;2024-02-14T13:40:43;19.30;60.50
81935;DHT22;71405;47.674;-2.050;2024-02-14T13:43:09;19.30;60.40
81935;DHT22;71405;47.674;-2.050;2024-02-14T13:45:43;19.30;60.30
81935;DHT22;71405;47.674;-2.050;2024-02-14T13:48:09;19.30;60.30
81935;DHT22;71405;47.674;-2.050;2024-02-14T13:50:36;19.30;60.30
81935;DHT22;71405;47.674;-2.050;2024-02-14T13:53:02;19.40;60.10
81935;DHT22;71405;47.674;-2.050;2024-02-14T13:55:28;19.30;60.10
81935;DHT22;71405;47.674;-2.050;2024-02-14T13:57:54;19.30;60.30
81935;DHT22;71405;47.674;-2.050;2024-02-14T14:00:20;19.30;60.10
81935;DHT22;71405;47.674;-2.050;2024-02-14T14:02:46;19.30;60.20
81935;DHT22;71405;47.674;-2.050;2024-02-14T14:05:12;19.30;60.10
81935;DHT22;71405;47.674;-2.050;2024-02-14T14:07:39;19.30;60.00
81935;DHT22;71405;47.674;-2.050;2024-02-14T14:10:09;19.30;60.30
81935;DHT22;71405;47.674;-2.050;2024-02-14T14:12:35;19.30;60.20
81935;DHT22;71405;47.674;-2.050;2024-02-14T14:15:02;19.30;60.30
81935;DHT22;71405;47.674;-2.050;2024-02-14T14:17:28;19.30;60.20
81935;DHT22;71405;47.674;-2.050;2024-02-14T14:19:54;19.30;60.20
81935;DHT22;71405;47.674;-2.050;2024-02-14T14:22:20;19.30;60.20
81935;DHT22;71405;47.674;-2.050;2024-02-14T14:24:46;19.30;60.10
81935;DHT22;71405;47.674;-2.050;2024-02-14T14:27:12;19.30;60.20
81935;DHT22;71405;47.674;-2.050;2024-02-14T14:29:42;19.30;60.10
81935;DHT22;71405;47.674;-2.050;2024-02-14T14:32:09;19.40;60.20
81935;DHT22;71405;47.674;-2.050;2024-02-14T14:34:35;19.40;60.10
81935;DHT22;71405;47.674;-2.050;2024-02-14T14:37:00;19.30;59.90
81935;DHT22;71405;47.674;-2.050;2024-02-14T14:39:26;19.40;60.00
81935;DHT22;71405;47.674;-2.050;2024-02-14T14:41:52;19.30;59.90
81935;DHT22;71405;47.674;-2.050;2024-02-14T14:44:21;19.30;60.00
81935;DHT22;71405;47.674;-2.050;2024-02-14T14:46:47;19.30;60.10
81935;DHT22;71405;47.674;-2.050;2024-02-14T14:49:12;19.30;60.00
81935;DHT22;71405;47.674;-2.050;2024-02-14T14:51:39;19.30;60.10
81935;DHT22;71405;47.674;-2.050;2024-02-14T14:54:05;19.30;60.10
81935;DHT22;71405;47.674;-2.050;2024-02-14T14:56:31;19.30;60.20
81935;DHT22;71405;47.674;-2.050;2024-02-14T14:58:56;19.30;60.20
81935;DHT22;71405;47.674;-2.050;2024-02-14T15:01:25;19.30;60.10
81935;DHT22;71405;47.674;-2.050;2024-02-14T15:03:50;19.30;60.20
81935;DHT22;71405;47.674;-2.050;2024-02-14T15:06:18;19.30;60.10
81935;DHT22;71405;47.674;-2.050;2024-02-14T15:08:44;19.30;60.10
81935;DHT22;71405;47.674;-2.050;2024-02-14T15:11:11;19.30;60.10
81935;DHT22;71405;47.674;-2.050;2024-02-14T15:13:40;19.30;60.10